sensor_id;sensor_type;location;lat;lon;timestamp;P1;durP1;ratioP1;P2;durP2;ratioP2
67053;SDS011;53960;51.826;5.850;2023-04-06T00:00:58;11.33;;;5.00;;
67053;SDS011;53960;51.826;5.850;2023-04-06T00:03:24;13.23;;;5.28;;
67053;SDS011;53960;51.826;5.850;2023-04-06T00:05:49;11.73;;;4.97;;
67053;SDS011;53960;51.826;5.850;2023-04-06T00:08:15;11.47;;;4.93;;
67053;SDS011;53960;51.826;5.850;2023-04-06T00:10:41;11.98;;;4.53;;
67053;SDS011;53960;51.826;5.850;2023-04-06T00:13:06;11.20;;;4.57;;
67053;SDS011;53960;51.826;5.850;2023-04-06T00:15:32;12.80;;;5.22;;
67053;SDS011;53960;51.826;5.850;2023-04-06T00:17:58;11.50;;;5.57;;
67053;SDS011;53960;51.826;5.850;2023-04-06T00:20:23;10.83;;;4.17;;
67053;SDS011;53960;51.826;5.850;2023-04-06T00:22:49;12.40;;;5.17;;
67053;SDS011;53960;51.826;5.850;2023-04-06T00:25:15;10.95;;;4.65;;
67053;SDS011;53960;51.826;5.850;2023-04-06T00:27:41;11.67;;;4.57;;
67053;SDS011;53960;51.826;5.850;2023-04-06T00:30:06;11.73;;;5.18;;
67053;SDS011;53960;51.826;5.850;2023-04-06T00:32:32;11.40;;;5.23;;
67053;SDS011;53960;51.826;5.850;2023-04-06T00:34:59;12.57;;;5.20;;
67053;SDS011;53960;51.826;5.850;2023-04-06T00:37:24;13.10;;;5.07;;
67053;SDS011;53960;51.826;5.850;2023-04-06T00:39:49;10.97;;;5.40;;
67053;SDS011;53960;51.826;5.850;2023-04-06T00:42:16;11.32;;;4.60;;
67053;SDS011;53960;51.826;5.850;2023-04-06T00:44:49;14.60;;;5.75;;
67053;SDS011;53960;51.826;5.850;2023-04-06T00:47:15;13.13;;;5.70;;
67053;SDS011;53960;51.826;5.850;2023-04-06T00:49:40;10.88;;;4.80;;
67053;SDS011;53960;51.826;5.850;2023-04-06T00:52:06;11.83;;;4.87;;
67053;SDS011;53960;51.826;5.850;2023-04-06T00:54:31;12.03;;;5.20;;
67053;SDS011;53960;51.826;5.850;2023-04-06T00:56:56;16.23;;;5.67;;
67053;SDS011;53960;51.826;5.850;2023-04-06T00:59:22;11.40;;;5.17;;
67053;SDS011;53960;51.826;5.850;2023-04-06T01:01:47;12.43;;;5.28;;
67053;SDS011;53960;51.826;5.850;2023-04-06T01:04:13;11.77;;;5.10;;
67053;SDS011;53960;51.826;5.850;2023-04-06T01:06:38;13.03;;;5.37;;
67053;SDS011;53960;51.826;5.850;2023-04-06T01:09:03;12.23;;;5.57;;
67053;SDS011;53960;51.826;5.850;2023-04-06T01:11:29;11.50;;;4.73;;
67053;SDS011;53960;51.826;5.850;2023-04-06T01:13:54;14.68;;;5.07;;
67053;SDS011;53960;51.826;5.850;2023-04-06T01:16:20;12.10;;;5.23;;
67053;SDS011;53960;51.826;5.850;2023-04-06T01:18:45;12.60;;;4.90;;
67053;SDS011;53960;51.826;5.850;2023-04-06T01:21:11;12.33;;;5.10;;
67053;SDS011;53960;51.826;5.850;2023-04-06T01:23:42;12.52;;;5.30;;
67053;SDS011;53960;51.826;5.850;2023-04-06T01:26:09;11.73;;;4.97;;
67053;SDS011;53960;51.826;5.850;2023-04-06T01:28:34;13.73;;;5.27;;
67053;SDS011;53960;51.826;5.850;2023-04-06T01:31:00;11.15;;;4.60;;
67053;SDS011;53960;51.826;5.850;2023-04-06T01:33:25;13.07;;;5.10;;
67053;SDS011;53960;51.826;5.850;2023-04-06T01:35:50;11.47;;;5.50;;
67053;SDS011;53960;51.826;5.850;2023-04-06T01:38:16;12.60;;;5.53;;
67053;SDS011;53960;51.826;5.850;2023-04-06T01:40:41;15.00;;;5.30;;
67053;SDS011;53960;51.826;5.850;2023-04-06T01:43:07;12.48;;;5.18;;
67053;SDS011;53960;51.826;5.850;2023-04-06T01:45:32;13.70;;;5.23;;
67053;SDS011;53960;51.826;5.850;2023-04-06T01:47:57;13.10;;;4.90;;
67053;SDS011;53960;51.826;5.850;2023-04-06T01:50:22;11.27;;;5.10;;
67053;SDS011;53960;51.826;5.850;2023-04-06T01:52:48;13.30;;;5.70;;
67053;SDS011;53960;51.826;5.850;2023-04-06T01:55:13;11.23;;;4.53;;
67053;SDS011;53960;51.826;5.850;2023-04-06T01:57:38;13.50;;;5.63;;
67053;SDS011;53960;51.826;5.850;2023-04-06T02:00:04;12.90;;;5.67;;
67053;SDS011;53960;51.826;5.850;2023-04-06T02:02:30;13.05;;;5.28;;
67053;SDS011;53960;51.826;5.850;2023-04-06T02:04:55;11.82;;;5.78;;
67053;SDS011;53960;51.826;5.850;2023-04-06T02:07:21;12.80;;;5.30;;
67053;SDS011;53960;51.826;5.850;2023-04-06T02:09:46;11.07;;;4.90;;
67053;SDS011;53960;51.826;5.850;2023-04-06T02:12:11;12.73;;;5.30;;
67053;SDS011;53960;51.826;5.850;2023-04-06T02:14:37;13.67;;;5.97;;
67053;SDS011;53960;51.826;5.850;2023-04-06T02:17:02;12.07;;;5.60;;
67053;SDS011;53960;51.826;5.850;2023-04-06T02:19:27;10.97;;;5.40;;
67053;SDS011;53960;51.826;5.850;2023-04-06T02:21:53;12.47;;;5.10;;
67053;SDS011;53960;51.826;5.850;2023-04-06T02:24:18;13.43;;;5.20;;
67053;SDS011;53960;51.826;5.850;2023-04-06T02:26:43;12.73;;;5.30;;
67053;SDS011;53960;51.826;5.850;2023-04-06T02:29:09;12.47;;;5.70;;
67053;SDS011;53960;51.826;5.850;2023-04-06T02:31:34;12.33;;;5.73;;
67053;SDS011;53960;51.826;5.850;2023-04-06T02:34:00;14.03;;;5.40;;
67053;SDS011;53960;51.826;5.850;2023-04-06T02:36:25;13.57;;;5.73;;
67053;SDS011;53960;51.826;5.850;2023-04-06T02:38:51;12.57;;;5.43;;
67053;SDS011;53960;51.826;5.850;2023-04-06T02:41:16;12.18;;;5.95;;
67053;SDS011;53960;51.826;5.850;2023-04-06T02:43:42;12.37;;;6.13;;
67053;SDS011;53960;51.826;5.850;2023-04-06T02:46:07;13.63;;;5.93;;
67053;SDS011;53960;51.826;5.850;2023-04-06T02:48:32;12.53;;;5.63;;
67053;SDS011;53960;51.826;5.850;2023-04-06T02:51:00;14.00;;;5.88;;
67053;SDS011;53960;51.826;5.850;2023-04-06T02:53:26;12.60;;;6.10;;
67053;SDS011;53960;51.826;5.850;2023-04-06T02:55:52;14.50;;;5.82;;
67053;SDS011;53960;51.826;5.850;2023-04-06T02:58:17;12.80;;;6.00;;
67053;SDS011;53960;51.826;5.850;2023-04-06T03:00:43;12.17;;;6.00;;
67053;SDS011;53960;51.826;5.850;2023-04-06T03:03:08;13.33;;;6.03;;
67053;SDS011;53960;51.826;5.850;2023-04-06T03:05:34;12.53;;;5.83;;
67053;SDS011;53960;51.826;5.850;2023-04-06T03:07:59;14.60;;;5.87;;
67053;SDS011;53960;51.826;5.850;2023-04-06T03:10:24;14.40;;;6.53;;
67053;SDS011;53960;51.826;5.850;2023-04-06T03:12:50;12.50;;;5.87;;
67053;SDS011;53960;51.826;5.850;2023-04-06T03:15:15;13.87;;;6.50;;
67053;SDS011;53960;51.826;5.850;2023-04-06T03:17:40;13.13;;;6.30;;
67053;SDS011;53960;51.826;5.850;2023-04-06T03:20:06;15.67;;;6.10;;
67053;SDS011;53960;51.826;5.850;2023-04-06T03:22:31;14.77;;;6.10;;
67053;SDS011;53960;51.826;5.850;2023-04-06T03:24:57;14.00;;;6.03;;
67053;SDS011;53960;51.826;5.850;2023-04-06T03:27:22;15.40;;;6.90;;
67053;SDS011;53960;51.826;5.850;2023-04-06T03:29:47;14.80;;;6.30;;
67053;SDS011;53960;51.826;5.850;2023-04-06T03:32:13;15.07;;;5.83;;
67053;SDS011;53960;51.826;5.850;2023-04-06T03:34:39;14.18;;;6.47;;
67053;SDS011;53960;51.826;5.850;2023-04-06T03:37:04;13.67;;;6.80;;
67053;SDS011;53960;51.826;5.850;2023-04-06T03:39:30;14.90;;;6.40;;
67053;SDS011;53960;51.826;5.850;2023-04-06T03:41:55;15.43;;;6.80;;
67053;SDS011;53960;51.826;5.850;2023-04-06T03:44:20;13.13;;;6.30;;
67053;SDS011;53960;51.826;5.850;2023-04-06T03:46:46;14.03;;;6.27;;
67053;SDS011;53960;51.826;5.850;2023-04-06T03:49:11;14.90;;;6.77;;
67053;SDS011;53960;51.826;5.850;2023-04-06T03:51:36;14.57;;;6.57;;
67053;SDS011;53960;51.826;5.850;2023-04-06T03:54:02;16.75;;;7.47;;
67053;SDS011;53960;51.826;5.850;2023-04-06T03:56:27;15.83;;;7.17;;
67053;SDS011;53960;51.826;5.850;2023-04-06T03:58:53;14.00;;;6.30;;
67053;SDS011;53960;51.826;5.850;2023-04-06T04:01:18;16.03;;;7.17;;
67053;SDS011;53960;51.826;5.850;2023-04-06T04:03:43;13.50;;;6.27;;
67053;SDS011;53960;51.826;5.850;2023-04-06T04:06:09;14.57;;;6.85;;
67053;SDS011;53960;51.826;5.850;2023-04-06T04:08:34;14.23;;;6.67;;
67053;SDS011;53960;51.826;5.850;2023-04-06T04:11:00;15.83;;;7.30;;
67053;SDS011;53960;51.826;5.850;2023-04-06T04:13:25;18.23;;;7.53;;
67053;SDS011;53960;51.826;5.850;2023-04-06T04:15:51;17.30;;;7.33;;
67053;SDS011;53960;51.826;5.850;2023-04-06T04:18:16;17.20;;;7.40;;
67053;SDS011;53960;51.826;5.850;2023-04-06T04:20:41;18.67;;;8.20;;
67053;SDS011;53960;51.826;5.850;2023-04-06T04:23:07;17.37;;;7.90;;
67053;SDS011;53960;51.826;5.850;2023-04-06T04:25:32;15.73;;;7.67;;
67053;SDS011;53960;51.826;5.850;2023-04-06T04:34:31;16.27;;;7.47;;
67053;SDS011;53960;51.826;5.850;2023-04-06T04:36:57;16.83;;;8.07;;
67053;SDS011;53960;51.826;5.850;2023-04-06T04:39:23;16.97;;;7.73;;
67053;SDS011;53960;51.826;5.850;2023-04-06T04:41:48;15.63;;;8.10;;
67053;SDS011;53960;51.826;5.850;2023-04-06T04:44:13;18.63;;;8.57;;
67053;SDS011;53960;51.826;5.850;2023-04-06T04:46:39;17.08;;;8.30;;
67053;SDS011;53960;51.826;5.850;2023-04-06T04:49:06;20.10;;;9.00;;
67053;SDS011;53960;51.826;5.850;2023-04-06T04:51:31;18.70;;;8.77;;
67053;SDS011;53960;51.826;5.850;2023-04-06T04:53:57;17.83;;;8.48;;
67053;SDS011;53960;51.826;5.850;2023-04-06T04:56:23;20.77;;;8.53;;
67053;SDS011;53960;51.826;5.850;2023-04-06T04:58:48;20.10;;;8.87;;
67053;SDS011;53960;51.826;5.850;2023-04-06T05:01:13;18.37;;;8.63;;
67053;SDS011;53960;51.826;5.850;2023-04-06T05:03:39;19.00;;;8.35;;
67053;SDS011;53960;51.826;5.850;2023-04-06T05:06:05;19.30;;;8.50;;
67053;SDS011;53960;51.826;5.850;2023-04-06T05:08:30;20.07;;;8.53;;
67053;SDS011;53960;51.826;5.850;2023-04-06T05:10:56;20.55;;;8.52;;
67053;SDS011;53960;51.826;5.850;2023-04-06T05:13:21;19.80;;;8.90;;
67053;SDS011;53960;51.826;5.850;2023-04-06T05:15:47;18.37;;;8.33;;
67053;SDS011;53960;51.826;5.850;2023-04-06T05:18:13;18.95;;;9.38;;
67053;SDS011;53960;51.826;5.850;2023-04-06T05:20:38;19.43;;;8.83;;
67053;SDS011;53960;51.826;5.850;2023-04-06T05:23:03;19.07;;;8.50;;
67053;SDS011;53960;51.826;5.850;2023-04-06T05:25:29;19.45;;;9.27;;
67053;SDS011;53960;51.826;5.850;2023-04-06T05:27:55;18.43;;;9.43;;
67053;SDS011;53960;51.826;5.850;2023-04-06T05:30:20;19.08;;;8.45;;
67053;SDS011;53960;51.826;5.850;2023-04-06T05:32:46;20.60;;;9.33;;
67053;SDS011;53960;51.826;5.850;2023-04-06T05:35:11;18.50;;;8.77;;
67053;SDS011;53960;51.826;5.850;2023-04-06T05:37:37;21.10;;;9.77;;
67053;SDS011;53960;51.826;5.850;2023-04-06T05:40:03;20.00;;;9.87;;
67053;SDS011;53960;51.826;5.850;2023-04-06T05:42:38;18.77;;;8.95;;
67053;SDS011;53960;51.826;5.850;2023-04-06T05:45:05;18.80;;;9.45;;
67053;SDS011;53960;51.826;5.850;2023-04-06T05:47:31;21.10;;;9.80;;
67053;SDS011;53960;51.826;5.850;2023-04-06T05:49:56;18.43;;;8.90;;
67053;SDS011;53960;51.826;5.850;2023-04-06T05:52:21;20.57;;;9.50;;
67053;SDS011;53960;51.826;5.850;2023-04-06T05:54:47;19.20;;;9.23;;
67053;SDS011;53960;51.826;5.850;2023-04-06T05:57:12;22.57;;;10.43;;
67053;SDS011;53960;51.826;5.850;2023-04-06T05:59:37;20.43;;;9.83;;
67053;SDS011;53960;51.826;5.850;2023-04-06T06:02:03;19.07;;;9.13;;
67053;SDS011;53960;51.826;5.850;2023-04-06T06:04:28;19.20;;;8.70;;
67053;SDS011;53960;51.826;5.850;2023-04-06T06:06:54;21.03;;;9.63;;
67053;SDS011;53960;51.826;5.850;2023-04-06T06:09:19;19.97;;;9.40;;
67053;SDS011;53960;51.826;5.850;2023-04-06T06:11:45;20.27;;;9.10;;
67053;SDS011;53960;51.826;5.850;2023-04-06T06:14:11;21.55;;;9.63;;
67053;SDS011;53960;51.826;5.850;2023-04-06T06:16:36;21.67;;;10.20;;
67053;SDS011;53960;51.826;5.850;2023-04-06T06:19:01;22.97;;;9.47;;
67053;SDS011;53960;51.826;5.850;2023-04-06T06:21:27;23.10;;;10.33;;
67053;SDS011;53960;51.826;5.850;2023-04-06T06:23:52;20.03;;;9.13;;
67053;SDS011;53960;51.826;5.850;2023-04-06T06:26:19;23.27;;;10.15;;
67053;SDS011;53960;51.826;5.850;2023-04-06T06:28:44;19.23;;;9.47;;
67053;SDS011;53960;51.826;5.850;2023-04-06T06:31:09;19.93;;;9.57;;
67053;SDS011;53960;51.826;5.850;2023-04-06T06:33:35;19.90;;;9.10;;
67053;SDS011;53960;51.826;5.850;2023-04-06T06:36:00;20.97;;;9.20;;
67053;SDS011;53960;51.826;5.850;2023-04-06T06:38:26;22.60;;;8.90;;
67053;SDS011;53960;51.826;5.850;2023-04-06T06:40:51;18.67;;;8.53;;
67053;SDS011;53960;51.826;5.850;2023-04-06T06:43:17;21.90;;;9.07;;
67053;SDS011;53960;51.826;5.850;2023-04-06T06:45:42;18.90;;;8.93;;
67053;SDS011;53960;51.826;5.850;2023-04-06T06:48:09;20.40;;;9.60;;
67053;SDS011;53960;51.826;5.850;2023-04-06T06:50:34;20.57;;;10.17;;
67053;SDS011;53960;51.826;5.850;2023-04-06T06:53:00;20.20;;;8.40;;
67053;SDS011;53960;51.826;5.850;2023-04-06T06:55:25;20.17;;;9.00;;
67053;SDS011;53960;51.826;5.850;2023-04-06T06:57:52;20.08;;;8.82;;
67053;SDS011;53960;51.826;5.850;2023-04-06T07:00:17;21.52;;;9.20;;
67053;SDS011;53960;51.826;5.850;2023-04-06T07:02:45;19.15;;;8.77;;
67053;SDS011;53960;51.826;5.850;2023-04-06T07:05:10;21.73;;;9.00;;
67053;SDS011;53960;51.826;5.850;2023-04-06T07:07:36;19.47;;;9.23;;
67053;SDS011;53960;51.826;5.850;2023-04-06T07:10:01;19.97;;;8.37;;
67053;SDS011;53960;51.826;5.850;2023-04-06T07:12:26;20.48;;;9.35;;
67053;SDS011;53960;51.826;5.850;2023-04-06T07:14:52;18.93;;;8.97;;
67053;SDS011;53960;51.826;5.850;2023-04-06T07:17:17;16.97;;;8.40;;
67053;SDS011;53960;51.826;5.850;2023-04-06T07:19:43;22.07;;;9.33;;
67053;SDS011;53960;51.826;5.850;2023-04-06T07:22:08;18.75;;;8.40;;
67053;SDS011;53960;51.826;5.850;2023-04-06T07:24:33;21.97;;;9.37;;
67053;SDS011;53960;51.826;5.850;2023-04-06T07:26:59;22.87;;;9.90;;
67053;SDS011;53960;51.826;5.850;2023-04-06T07:29:25;22.48;;;9.98;;
67053;SDS011;53960;51.826;5.850;2023-04-06T07:31:51;19.70;;;9.90;;
67053;SDS011;53960;51.826;5.850;2023-04-06T07:34:16;20.58;;;10.10;;
67053;SDS011;53960;51.826;5.850;2023-04-06T07:36:42;20.83;;;9.83;;
67053;SDS011;53960;51.826;5.850;2023-04-06T07:39:07;21.07;;;9.40;;
67053;SDS011;53960;51.826;5.850;2023-04-06T07:41:32;19.53;;;9.60;;
67053;SDS011;53960;51.826;5.850;2023-04-06T07:43:58;21.23;;;10.63;;
67053;SDS011;53960;51.826;5.850;2023-04-06T07:46:23;21.60;;;10.70;;
67053;SDS011;53960;51.826;5.850;2023-04-06T07:48:49;20.23;;;9.60;;
67053;SDS011;53960;51.826;5.850;2023-04-06T07:51:15;22.30;;;10.82;;
67053;SDS011;53960;51.826;5.850;2023-04-06T07:53:42;21.00;;;10.10;;
67053;SDS011;53960;51.826;5.850;2023-04-06T07:56:08;27.30;;;10.20;;
67053;SDS011;53960;51.826;5.850;2023-04-06T07:58:34;23.17;;;10.13;;
67053;SDS011;53960;51.826;5.850;2023-04-06T08:00:59;22.90;;;10.00;;
67053;SDS011;53960;51.826;5.850;2023-04-06T08:03:25;19.87;;;10.33;;
67053;SDS011;53960;51.826;5.850;2023-04-06T08:05:51;19.63;;;10.70;;
67053;SDS011;53960;51.826;5.850;2023-04-06T08:08:17;22.85;;;9.93;;
67053;SDS011;53960;51.826;5.850;2023-04-06T08:10:43;21.25;;;9.95;;
67053;SDS011;53960;51.826;5.850;2023-04-06T08:13:08;21.57;;;9.50;;
67053;SDS011;53960;51.826;5.850;2023-04-06T08:15:34;20.23;;;10.07;;
67053;SDS011;53960;51.826;5.850;2023-04-06T08:17:59;21.00;;;10.17;;
67053;SDS011;53960;51.826;5.850;2023-04-06T08:20:24;21.07;;;10.23;;
67053;SDS011;53960;51.826;5.850;2023-04-06T08:22:50;21.83;;;9.97;;
67053;SDS011;53960;51.826;5.850;2023-04-06T08:25:15;25.03;;;10.77;;
67053;SDS011;53960;51.826;5.850;2023-04-06T08:27:40;20.77;;;9.90;;
67053;SDS011;53960;51.826;5.850;2023-04-06T08:30:06;21.07;;;10.30;;
67053;SDS011;53960;51.826;5.850;2023-04-06T08:32:31;22.50;;;10.33;;
67053;SDS011;53960;51.826;5.850;2023-04-06T08:34:57;24.30;;;11.00;;
67053;SDS011;53960;51.826;5.850;2023-04-06T08:37:22;22.50;;;10.60;;
67053;SDS011;53960;51.826;5.850;2023-04-06T08:39:47;22.10;;;9.93;;
67053;SDS011;53960;51.826;5.850;2023-04-06T08:42:18;25.07;;;11.63;;
67053;SDS011;53960;51.826;5.850;2023-04-06T08:44:45;26.77;;;11.15;;
67053;SDS011;53960;51.826;5.850;2023-04-06T08:47:11;21.97;;;11.13;;
67053;SDS011;53960;51.826;5.850;2023-04-06T08:49:37;22.80;;;10.73;;
67053;SDS011;53960;51.826;5.850;2023-04-06T08:52:05;20.98;;;10.23;;
67053;SDS011;53960;51.826;5.850;2023-04-06T08:54:32;21.88;;;10.98;;
67053;SDS011;53960;51.826;5.850;2023-04-06T08:56:57;25.63;;;10.97;;
67053;SDS011;53960;51.826;5.850;2023-04-06T08:59:23;24.15;;;10.60;;
67053;SDS011;53960;51.826;5.850;2023-04-06T09:01:50;23.53;;;10.50;;
67053;SDS011;53960;51.826;5.850;2023-04-06T09:04:17;23.23;;;10.75;;
67053;SDS011;53960;51.826;5.850;2023-04-06T09:06:43;20.83;;;10.33;;
67053;SDS011;53960;51.826;5.850;2023-04-06T09:09:08;20.98;;;11.05;;
67053;SDS011;53960;51.826;5.850;2023-04-06T09:11:43;23.03;;;10.97;;
67053;SDS011;53960;51.826;5.850;2023-04-06T09:14:10;25.75;;;11.43;;
67053;SDS011;53960;51.826;5.850;2023-04-06T09:16:41;21.93;;;10.80;;
67053;SDS011;53960;51.826;5.850;2023-04-06T09:19:08;24.33;;;11.18;;
67053;SDS011;53960;51.826;5.850;2023-04-06T09:21:34;20.77;;;10.55;;
67053;SDS011;53960;51.826;5.850;2023-04-06T09:24:01;21.70;;;10.90;;
67053;SDS011;53960;51.826;5.850;2023-04-06T09:26:27;23.52;;;11.48;;
67053;SDS011;53960;51.826;5.850;2023-04-06T09:28:53;21.33;;;10.90;;
67053;SDS011;53960;51.826;5.850;2023-04-06T09:31:24;24.67;;;11.15;;
67053;SDS011;53960;51.826;5.850;2023-04-06T09:33:50;22.85;;;11.15;;
67053;SDS011;53960;51.826;5.850;2023-04-06T09:36:17;22.95;;;10.98;;
67053;SDS011;53960;51.826;5.850;2023-04-06T09:38:53;25.53;;;11.57;;
67053;SDS011;53960;51.826;5.850;2023-04-06T09:41:28;23.63;;;10.77;;
67053;SDS011;53960;51.826;5.850;2023-04-06T09:44:07;21.25;;;10.57;;
67053;SDS011;53960;51.826;5.850;2023-04-06T09:46:37;23.30;;;11.35;;
67053;SDS011;53960;51.826;5.850;2023-04-06T09:49:04;22.95;;;11.05;;
67053;SDS011;53960;51.826;5.850;2023-04-06T09:51:31;24.33;;;12.30;;
67053;SDS011;53960;51.826;5.850;2023-04-06T09:54:18;24.67;;;11.23;;
67053;SDS011;53960;51.826;5.850;2023-04-06T09:56:47;20.50;;;10.80;;
67053;SDS011;53960;51.826;5.850;2023-04-06T09:59:18;22.63;;;10.52;;
67053;SDS011;53960;51.826;5.850;2023-04-06T10:01:51;20.77;;;10.57;;
67053;SDS011;53960;51.826;5.850;2023-04-06T10:04:21;25.40;;;11.63;;
67053;SDS011;53960;51.826;5.850;2023-04-06T10:06:51;24.70;;;11.45;;
67053;SDS011;53960;51.826;5.850;2023-04-06T10:09:18;22.63;;;10.73;;
67053;SDS011;53960;51.826;5.850;2023-04-06T10:11:47;21.15;;;10.63;;
67053;SDS011;53960;51.826;5.850;2023-04-06T10:14:13;21.58;;;11.38;;
67053;SDS011;53960;51.826;5.850;2023-04-06T10:16:40;22.53;;;11.57;;
67053;SDS011;53960;51.826;5.850;2023-04-06T10:19:07;25.15;;;11.00;;
67053;SDS011;53960;51.826;5.850;2023-04-06T10:21:43;24.30;;;11.23;;
67053;SDS011;53960;51.826;5.850;2023-04-06T10:24:13;23.50;;;10.27;;
67053;SDS011;53960;51.826;5.850;2023-04-06T10:26:38;22.55;;;11.50;;
67053;SDS011;53960;51.826;5.850;2023-04-06T10:29:05;21.53;;;10.63;;
67053;SDS011;53960;51.826;5.850;2023-04-06T10:31:31;20.58;;;10.25;;
67053;SDS011;53960;51.826;5.850;2023-04-06T10:34:00;22.85;;;11.27;;
67053;SDS011;53960;51.826;5.850;2023-04-06T10:36:27;21.23;;;11.05;;
67053;SDS011;53960;51.826;5.850;2023-04-06T10:38:57;22.07;;;10.50;;
67053;SDS011;53960;51.826;5.850;2023-04-06T10:41:23;23.50;;;10.85;;
67053;SDS011;53960;51.826;5.850;2023-04-06T10:43:56;21.23;;;10.27;;
67053;SDS011;53960;51.826;5.850;2023-04-06T10:46:25;23.60;;;10.60;;
67053;SDS011;53960;51.826;5.850;2023-04-06T10:48:52;22.25;;;11.15;;
67053;SDS011;53960;51.826;5.850;2023-04-06T10:51:18;20.77;;;10.83;;
67053;SDS011;53960;51.826;5.850;2023-04-06T10:53:45;20.67;;;10.25;;
67053;SDS011;53960;51.826;5.850;2023-04-06T10:56:16;23.77;;;10.10;;
67053;SDS011;53960;51.826;5.850;2023-04-06T10:58:46;22.35;;;10.88;;
67053;SDS011;53960;51.826;5.850;2023-04-06T11:01:12;19.63;;;11.05;;
67053;SDS011;53960;51.826;5.850;2023-04-06T11:03:43;19.85;;;9.90;;
67053;SDS011;53960;51.826;5.850;2023-04-06T11:06:19;19.27;;;9.98;;
67053;SDS011;53960;51.826;5.850;2023-04-06T11:08:48;21.90;;;9.70;;
67053;SDS011;53960;51.826;5.850;2023-04-06T11:11:15;18.65;;;8.98;;
67053;SDS011;53960;51.826;5.850;2023-04-06T11:16:24;21.50;;;8.65;;
67053;SDS011;53960;51.826;5.850;2023-04-06T11:18:58;20.42;;;9.27;;
67053;SDS011;53960;51.826;5.850;2023-04-06T11:21:46;20.47;;;9.97;;
67053;SDS011;53960;51.826;5.850;2023-04-06T11:24:20;17.63;;;7.82;;
67053;SDS011;53960;51.826;5.850;2023-04-06T11:26:46;15.63;;;6.70;;
67053;SDS011;53960;51.826;5.850;2023-04-06T11:29:31;14.90;;;6.75;;
67053;SDS011;53960;51.826;5.850;2023-04-06T11:32:03;15.90;;;6.93;;
67053;SDS011;53960;51.826;5.850;2023-04-06T11:34:32;14.90;;;6.97;;
67053;SDS011;53960;51.826;5.850;2023-04-06T11:37:01;14.35;;;6.95;;
67053;SDS011;53960;51.826;5.850;2023-04-06T11:39:30;14.85;;;7.03;;
67053;SDS011;53960;51.826;5.850;2023-04-06T11:41:58;14.90;;;6.82;;
67053;SDS011;53960;51.826;5.850;2023-04-06T11:44:34;17.58;;;8.57;;
67053;SDS011;53960;51.826;5.850;2023-04-06T11:47:02;16.40;;;6.90;;
67053;SDS011;53960;51.826;5.850;2023-04-06T11:49:28;16.95;;;6.43;;
67053;SDS011;53960;51.826;5.850;2023-04-06T11:51:55;16.77;;;7.05;;
67053;SDS011;53960;51.826;5.850;2023-04-06T11:54:30;16.23;;;6.28;;
67053;SDS011;53960;51.826;5.850;2023-04-06T11:56:56;14.98;;;7.32;;
67053;SDS011;53960;51.826;5.850;2023-04-06T11:59:22;15.00;;;6.87;;
67053;SDS011;53960;51.826;5.850;2023-04-06T12:01:47;13.93;;;6.20;;
67053;SDS011;53960;51.826;5.850;2023-04-06T12:04:13;14.75;;;6.60;;
67053;SDS011;53960;51.826;5.850;2023-04-06T12:06:39;15.87;;;6.00;;
67053;SDS011;53960;51.826;5.850;2023-04-06T12:09:05;13.80;;;6.05;;
67053;SDS011;53960;51.826;5.850;2023-04-06T12:11:30;12.50;;;5.13;;
67053;SDS011;53960;51.826;5.850;2023-04-06T12:13:55;12.70;;;4.47;;
67053;SDS011;53960;51.826;5.850;2023-04-06T12:16:21;13.17;;;5.20;;
67053;SDS011;53960;51.826;5.850;2023-04-06T12:18:46;14.50;;;5.03;;
67053;SDS011;53960;51.826;5.850;2023-04-06T12:21:11;11.27;;;4.90;;
67053;SDS011;53960;51.826;5.850;2023-04-06T12:23:37;10.43;;;4.57;;
67053;SDS011;53960;51.826;5.850;2023-04-06T12:26:02;12.53;;;4.97;;
67053;SDS011;53960;51.826;5.850;2023-04-06T12:28:28;13.00;;;5.27;;
67053;SDS011;53960;51.826;5.850;2023-04-06T12:30:53;11.07;;;4.90;;
67053;SDS011;53960;51.826;5.850;2023-04-06T12:33:20;10.95;;;4.30;;
67053;SDS011;53960;51.826;5.850;2023-04-06T12:35:46;13.55;;;4.80;;
67053;SDS011;53960;51.826;5.850;2023-04-06T12:38:11;13.30;;;5.00;;
67053;SDS011;53960;51.826;5.850;2023-04-06T12:40:39;12.03;;;4.90;;
67053;SDS011;53960;51.826;5.850;2023-04-06T12:43:05;12.55;;;4.55;;
67053;SDS011;53960;51.826;5.850;2023-04-06T12:45:31;10.83;;;5.17;;
67053;SDS011;53960;51.826;5.850;2023-04-06T12:47:56;10.25;;;4.38;;
67053;SDS011;53960;51.826;5.850;2023-04-06T12:50:22;11.52;;;5.07;;
67053;SDS011;53960;51.826;5.850;2023-04-06T12:52:47;11.67;;;4.73;;
67053;SDS011;53960;51.826;5.850;2023-04-06T12:55:13;11.50;;;4.70;;
67053;SDS011;53960;51.826;5.850;2023-04-06T12:57:38;11.70;;;5.03;;
67053;SDS011;53960;51.826;5.850;2023-04-06T13:00:04;13.00;;;5.50;;
67053;SDS011;53960;51.826;5.850;2023-04-06T13:02:30;14.50;;;5.13;;
67053;SDS011;53960;51.826;5.850;2023-04-06T13:04:55;11.33;;;5.10;;
67053;SDS011;53960;51.826;5.850;2023-04-06T13:07:21;13.03;;;5.30;;
67053;SDS011;53960;51.826;5.850;2023-04-06T13:09:47;11.95;;;4.65;;
67053;SDS011;53960;51.826;5.850;2023-04-06T13:12:14;11.32;;;4.78;;
67053;SDS011;53960;51.826;5.850;2023-04-06T13:14:40;13.55;;;5.63;;
67053;SDS011;53960;51.826;5.850;2023-04-06T13:17:06;12.77;;;5.60;;
67053;SDS011;53960;51.826;5.850;2023-04-06T13:19:31;11.40;;;5.30;;
67053;SDS011;53960;51.826;5.850;2023-04-06T13:21:57;13.30;;;5.90;;
67053;SDS011;53960;51.826;5.850;2023-04-06T13:24:22;13.50;;;5.60;;
67053;SDS011;53960;51.826;5.850;2023-04-06T13:26:48;14.32;;;5.65;;
67053;SDS011;53960;51.826;5.850;2023-04-06T13:29:14;14.93;;;5.70;;
67053;SDS011;53960;51.826;5.850;2023-04-06T13:31:39;14.05;;;6.25;;
67053;SDS011;53960;51.826;5.850;2023-04-06T13:34:05;14.07;;;6.50;;
67053;SDS011;53960;51.826;5.850;2023-04-06T13:36:30;14.07;;;6.20;;
67053;SDS011;53960;51.826;5.850;2023-04-06T13:38:57;14.02;;;6.70;;
67053;SDS011;53960;51.826;5.850;2023-04-06T13:41:23;13.67;;;6.00;;
67053;SDS011;53960;51.826;5.850;2023-04-06T13:43:50;16.60;;;6.32;;
67053;SDS011;53960;51.826;5.850;2023-04-06T13:46:15;15.90;;;6.32;;
67053;SDS011;53960;51.826;5.850;2023-04-06T13:48:41;14.73;;;6.83;;
67053;SDS011;53960;51.826;5.850;2023-04-06T13:51:07;15.30;;;6.85;;
67053;SDS011;53960;51.826;5.850;2023-04-06T13:53:33;14.40;;;6.47;;
67053;SDS011;53960;51.826;5.850;2023-04-06T13:55:59;18.90;;;7.57;;
67053;SDS011;53960;51.826;5.850;2023-04-06T13:58:24;14.93;;;7.23;;
67053;SDS011;53960;51.826;5.850;2023-04-06T14:00:50;16.83;;;7.47;;
67053;SDS011;53960;51.826;5.850;2023-04-06T14:03:15;14.98;;;7.53;;
67053;SDS011;53960;51.826;5.850;2023-04-06T14:05:41;18.07;;;8.13;;
67053;SDS011;53960;51.826;5.850;2023-04-06T14:08:06;17.40;;;8.37;;
67053;SDS011;53960;51.826;5.850;2023-04-06T14:10:36;18.50;;;7.70;;
67053;SDS011;53960;51.826;5.850;2023-04-06T14:13:02;14.57;;;7.07;;
67053;SDS011;53960;51.826;5.850;2023-04-06T14:15:27;16.43;;;7.57;;
67053;SDS011;53960;51.826;5.850;2023-04-06T14:17:53;17.45;;;8.35;;
67053;SDS011;53960;51.826;5.850;2023-04-06T14:20:19;17.73;;;8.40;;
67053;SDS011;53960;51.826;5.850;2023-04-06T14:22:44;22.83;;;11.37;;
67053;SDS011;53960;51.826;5.850;2023-04-06T14:25:09;23.33;;;10.60;;
67053;SDS011;53960;51.826;5.850;2023-04-06T14:27:38;18.38;;;8.90;;
67053;SDS011;53960;51.826;5.850;2023-04-06T14:30:03;20.70;;;10.83;;
67053;SDS011;53960;51.826;5.850;2023-04-06T14:32:29;18.33;;;9.30;;
67053;SDS011;53960;51.826;5.850;2023-04-06T14:34:54;22.83;;;11.50;;